createdAt,value
2023-03-27T00:00:01.737Z,99.90
2023-03-27T00:02:29.460Z,99.90
2023-03-27T00:04:57.165Z,99.90
2023-03-27T00:07:25.013Z,99.90
2023-03-27T00:09:53.491Z,99.90
2023-03-27T00:12:21.411Z,99.90
2023-03-27T00:14:49.235Z,99.90
2023-03-27T00:17:16.778Z,99.90
2023-03-27T00:19:45.163Z,99.90
2023-03-27T00:22:13.395Z,99.90
2023-03-27T00:24:41.132Z,99.90
2023-03-27T00:27:09.545Z,99.90
2023-03-27T00:29:37.768Z,99.90
2023-03-27T00:32:06.141Z,99.90
2023-03-27T00:34:34.117Z,99.90
2023-03-27T00:37:04.813Z,99.90
2023-03-27T00:39:32.426Z,99.90
2023-03-27T00:42:00.304Z,99.90
2023-03-27T00:44:35.780Z,99.90
2023-03-27T00:47:05.008Z,99.90
2023-03-27T00:49:34.246Z,99.90
2023-03-27T00:52:04.789Z,99.90
2023-03-27T00:54:38.852Z,99.90
2023-03-27T00:57:11.793Z,99.90
2023-03-27T00:59:43.170Z,99.90
2023-03-27T01:02:11.831Z,99.90
2023-03-27T01:04:44.546Z,99.90
2023-03-27T01:07:14.408Z,99.90
2023-03-27T01:09:42.383Z,99.90
2023-03-27T01:12:35.350Z,99.90
2023-03-27T01:15:15.487Z,99.90
2023-03-27T01:17:49.265Z,99.90
2023-03-27T01:20:27.419Z,99.90
2023-03-27T01:23:59.093Z,99.90
2023-03-27T01:26:51.900Z,99.90
2023-03-27T01:30:02.069Z,99.90
2023-03-27T01:32:50.373Z,99.90
2023-03-27T01:35:27.922Z,99.90
2023-03-27T01:38:29.533Z,99.90
2023-03-27T01:41:25.423Z,99.90
2023-03-27T01:44:08.947Z,99.90
2023-03-27T01:46:48.217Z,99.90
2023-03-27T01:49:35.919Z,99.90
2023-03-27T01:52:08.590Z,99.90
2023-03-27T01:54:43.710Z,99.90
2023-03-27T01:57:16.550Z,99.90
2023-03-27T01:59:49.292Z,99.90
2023-03-27T02:02:32.354Z,99.90
2023-03-27T02:05:42.111Z,99.90
2023-03-27T02:08:30.723Z,99.90
2023-03-27T02:11:09.229Z,99.90
2023-03-27T02:13:44.115Z,99.90
2023-03-27T02:16:16.683Z,99.90
2023-03-27T02:18:54.360Z,99.90
2023-03-27T02:21:23.663Z,99.90
2023-03-27T02:26:21.021Z,99.90
2023-03-27T02:29:16.928Z,99.90
2023-03-27T02:32:03.541Z,99.90
2023-03-27T02:34:46.859Z,99.90
2023-03-27T02:37:43.392Z,99.90
2023-03-27T02:40:56.402Z,99.90
2023-03-27T02:44:06.051Z,99.90
2023-03-27T02:47:24.522Z,99.90
2023-03-27T02:49:58.615Z,99.90
2023-03-27T02:52:43.514Z,99.90
2023-03-27T02:55:29.773Z,99.90
2023-03-27T02:58:03.330Z,99.90
2023-03-27T03:00:34.732Z,99.90
2023-03-27T03:03:53.706Z,99.90
2023-03-27T03:06:47.934Z,99.90
2023-03-27T03:09:17.014Z,99.90
2023-03-27T03:11:54.649Z,99.90
2023-03-27T03:14:41.152Z,99.90
2023-03-27T03:17:09.611Z,99.90
2023-03-27T03:19:38.100Z,99.90
2023-03-27T03:22:06.502Z,99.90
2023-03-27T03:24:35.790Z,99.90
2023-03-27T03:27:04.620Z,99.90
2023-03-27T03:29:40.142Z,99.90
2023-03-27T03:32:16.870Z,99.90
2023-03-27T03:37:17.293Z,99.90
2023-03-27T03:39:44.892Z,99.90
2023-03-27T03:42:22.762Z,99.90
2023-03-27T03:44:53.352Z,99.90
2023-03-27T03:47:23.053Z,99.90
2023-03-27T03:49:51.526Z,99.90
2023-03-27T03:52:19.313Z,99.90
2023-03-27T03:54:47.064Z,99.90
2023-03-27T03:57:15.024Z,99.90
2023-03-27T03:59:45.753Z,99.90
2023-03-27T04:02:29.521Z,99.90
2023-03-27T04:05:08.787Z,99.90
2023-03-27T04:07:40.501Z,99.90
2023-03-27T04:10:36.324Z,99.90
2023-03-27T04:13:09.622Z,99.90
2023-03-27T04:15:44.928Z,99.90
2023-03-27T04:18:20.372Z,99.90
2023-03-27T04:20:54.509Z,99.90
2023-03-27T04:28:54.890Z,99.90
2023-03-27T04:37:15.085Z,99.90
2023-03-27T04:39:55.467Z,99.90
2023-03-27T04:42:23.606Z,99.90
2023-03-27T04:44:52.652Z,99.90
2023-03-27T04:47:20.553Z,99.90
2023-03-27T04:49:51.357Z,99.90
2023-03-27T04:52:26.356Z,99.90
2023-03-27T04:54:54.344Z,99.90
2023-03-27T04:57:27.992Z,99.90
2023-03-27T05:00:02.065Z,99.90
2023-03-27T05:02:54.973Z,99.90
2023-03-27T05:05:29.966Z,99.90
2023-03-27T05:07:58.370Z,99.90
2023-03-27T05:12:58.419Z,99.90
2023-03-27T05:17:57.413Z,99.90
2023-03-27T05:22:59.028Z,99.90
2023-03-27T05:25:28.905Z,99.90
2023-03-27T05:27:58.398Z,99.90
2023-03-27T05:30:30.806Z,99.90
2023-03-27T05:33:20.625Z,99.90
2023-03-27T05:35:50.324Z,99.90
2023-03-27T05:38:19.510Z,99.90
2023-03-27T05:41:16.825Z,99.90
2023-03-27T05:43:51.298Z,99.90
2023-03-27T05:46:21.848Z,99.90
2023-03-27T05:49:00.046Z,99.90
2023-03-27T05:53:56.007Z,99.90
2023-03-27T05:56:28.875Z,99.90
2023-03-27T05:59:00.172Z,99.90
2023-03-27T06:01:29.573Z,99.90
2023-03-27T06:04:00.225Z,99.90
2023-03-27T06:06:32.854Z,99.90
2023-03-27T06:09:00.723Z,99.90
2023-03-27T06:11:29.564Z,99.90
2023-03-27T06:13:59.802Z,99.90
2023-03-27T06:16:43.414Z,99.90
2023-03-27T06:19:29.890Z,99.90
2023-03-27T06:21:57.571Z,99.90
2023-03-27T06:24:25.430Z,99.90
2023-03-27T06:26:53.398Z,99.90
2023-03-27T06:31:52.928Z,99.90
2023-03-27T06:39:44.981Z,99.90
2023-03-27T06:42:13.205Z,99.90
2023-03-27T06:45:01.070Z,99.90
2023-03-27T06:47:54.837Z,99.90
2023-03-27T06:50:33.267Z,99.90
2023-03-27T06:55:40.757Z,99.90
2023-03-27T06:58:09.091Z,99.90
2023-03-27T07:00:39.563Z,99.90
2023-03-27T07:03:25.883Z,99.90
2023-03-27T07:06:01.133Z,99.90
2023-03-27T07:13:37.390Z,99.90
2023-03-27T07:18:36.715Z,99.90
2023-03-27T07:21:05.010Z,99.90
2023-03-27T07:23:33.700Z,99.90
2023-03-27T07:26:05.120Z,99.90
2023-03-27T07:28:55.293Z,99.90
2023-03-27T07:33:54.587Z,99.90
2023-03-27T07:36:31.481Z,99.90
2023-03-27T07:41:34.798Z,99.90
2023-03-27T07:44:25.358Z,99.90
2023-03-27T07:46:58.670Z,99.90
2023-03-27T07:49:39.460Z,99.90
2023-03-27T07:52:09.956Z,99.90
2023-03-27T07:54:48.179Z,99.90
2023-03-27T07:57:17.934Z,99.90
2023-03-27T07:59:52.728Z,99.90
2023-03-27T08:02:30.736Z,99.90
2023-03-27T08:10:43.859Z,99.90
2023-03-27T08:13:13.165Z,99.90
2023-03-27T08:15:43.586Z,99.90
2023-03-27T08:18:22.642Z,99.90
2023-03-27T08:20:57.261Z,99.90
2023-03-27T08:26:19.760Z,99.90
2023-03-27T08:28:57.099Z,99.90
2023-03-27T08:31:30.703Z,99.90
2023-03-27T08:34:02.597Z,99.90
2023-03-27T08:36:48.085Z,99.90
2023-03-27T08:39:16.805Z,99.90
2023-03-27T08:42:19.354Z,99.90
2023-03-27T08:44:54.991Z,99.90
2023-03-27T08:47:46.013Z,99.90
2023-03-27T08:50:38.664Z,99.90
2023-03-27T08:53:22.449Z,99.90
2023-03-27T08:58:34.681Z,99.90
2023-03-27T09:01:46.712Z,99.90
2023-03-27T09:04:35.818Z,99.90
2023-03-27T09:07:18.454Z,99.90
2023-03-27T09:10:38.363Z,99.90
2023-03-27T09:13:39.549Z,99.90
2023-03-27T09:16:37.978Z,99.90
2023-03-27T09:19:28.016Z,99.90
2023-03-27T09:22:04.281Z,99.90
2023-03-27T09:24:52.066Z,99.90
2023-03-27T09:27:38.821Z,99.90
2023-03-27T09:30:33.891Z,99.90
2023-03-27T09:33:14.068Z,99.90
2023-03-27T09:35:45.922Z,99.90
2023-03-27T09:38:38.055Z,99.90
2023-03-27T09:41:34.418Z,99.90
2023-03-27T09:44:21.083Z,99.90
2023-03-27T09:47:02.307Z,99.90
2023-03-27T09:49:34.959Z,99.90
2023-03-27T09:52:08.120Z,99.90
2023-03-27T09:54:54.032Z,99.90
2023-03-27T09:57:37.396Z,99.90
2023-03-27T10:00:25.130Z,99.90
2023-03-27T10:03:06.767Z,99.90
2023-03-27T10:05:38.960Z,99.90
2023-03-27T10:08:42.678Z,99.90
2023-03-27T10:11:36.234Z,99.90
2023-03-27T10:14:19.743Z,99.90
2023-03-27T10:16:49.176Z,99.90
2023-03-27T10:19:43.398Z,99.90
2023-03-27T10:22:18.490Z,99.90
2023-03-27T10:24:50.646Z,99.90
2023-03-27T10:27:32.147Z,99.90
2023-03-27T10:30:38.236Z,99.90
2023-03-27T10:33:37.002Z,99.90
2023-03-27T10:36:22.854Z,99.90
2023-03-27T10:38:59.681Z,99.90
2023-03-27T10:41:39.313Z,99.90
2023-03-27T10:44:18.395Z,99.90
2023-03-27T10:46:54.344Z,99.90
2023-03-27T10:49:47.112Z,99.90
2023-03-27T10:52:40.171Z,99.90
2023-03-27T10:55:32.183Z,99.90
2023-03-27T10:58:06.535Z,99.90
2023-03-27T11:00:54.666Z,99.90
2023-03-27T11:03:44.845Z,99.90
2023-03-27T11:06:16.969Z,99.90
2023-03-27T11:09:06.046Z,99.90
2023-03-27T11:11:50.087Z,99.90
2023-03-27T11:14:46.191Z,99.90
2023-03-27T11:23:41.118Z,99.90
2023-03-27T11:26:34.770Z,99.90
2023-03-27T11:29:24.839Z,99.90
2023-03-27T11:32:01.688Z,99.90
2023-03-27T11:35:07.110Z,99.90
2023-03-27T11:38:06.633Z,99.90
2023-03-27T11:40:46.223Z,99.90
2023-03-27T11:43:22.522Z,99.90
2023-03-27T11:46:09.158Z,99.90
2023-03-27T11:48:52.414Z,99.90
2023-03-27T11:51:56.866Z,99.90
2023-03-27T11:55:06.682Z,99.90
2023-03-27T11:58:05.016Z,99.90
2023-03-27T12:00:53.514Z,99.90
2023-03-27T12:03:45.488Z,99.90
2023-03-27T12:06:34.528Z,99.90
2023-03-27T12:09:32.751Z,99.90
2023-03-27T12:12:30.171Z,99.90
2023-03-27T12:15:39.590Z,99.90
2023-03-27T12:18:35.357Z,99.90
2023-03-27T12:21:54.458Z,99.90
2023-03-27T12:25:00.034Z,99.90
2023-03-27T12:28:22.846Z,99.90
2023-03-27T12:31:19.526Z,99.90
2023-03-27T12:33:55.975Z,99.90
2023-03-27T12:36:26.358Z,99.90
2023-03-27T12:38:55.947Z,99.90
2023-03-27T12:41:31.280Z,99.90
2023-03-27T12:44:14.144Z,99.90
2023-03-27T12:47:26.403Z,99.90
2023-03-27T12:50:27.544Z,99.90
2023-03-27T12:52:57.835Z,99.90
2023-03-27T12:55:35.975Z,99.90
2023-03-27T12:58:06.449Z,99.90
2023-03-27T13:01:11.120Z,99.90
2023-03-27T13:04:29.378Z,99.90
2023-03-27T13:07:11.439Z,99.90
2023-03-27T13:10:29.809Z,99.90
2023-03-27T13:12:58.870Z,99.90
2023-03-27T13:15:51.553Z,99.90
2023-03-27T13:18:34.082Z,99.90
2023-03-27T13:21:39.900Z,99.90
2023-03-27T13:24:44.023Z,99.90
2023-03-27T13:27:45.067Z,99.90
2023-03-27T13:30:31.800Z,99.90
2023-03-27T13:33:25.633Z,99.90
2023-03-27T13:36:03.241Z,99.90
2023-03-27T13:38:56.815Z,99.90
2023-03-27T13:41:41.460Z,99.90
2023-03-27T13:44:38.906Z,99.90
2023-03-27T13:47:24.096Z,99.90
2023-03-27T13:50:07.058Z,99.90
2023-03-27T13:53:28.712Z,99.90
2023-03-27T13:56:16.194Z,99.90
2023-03-27T13:59:40.310Z,99.90
2023-03-27T14:02:39.024Z,99.90
2023-03-27T14:05:29.815Z,99.90
2023-03-27T14:08:13.447Z,99.90
2023-03-27T14:11:06.098Z,99.90
2023-03-27T14:13:57.648Z,99.90
2023-03-27T14:17:15.950Z,99.90
2023-03-27T14:20:08.772Z,99.90
2023-03-27T14:22:48.456Z,99.90
2023-03-27T14:25:38.789Z,99.90
2023-03-27T14:28:49.698Z,99.90
2023-03-27T14:31:20.296Z,99.90
2023-03-27T14:34:13.662Z,99.90
2023-03-27T14:36:48.909Z,90.40
2023-03-27T14:39:27.002Z,85.00
2023-03-27T14:42:03.411Z,84.90
2023-03-27T14:44:35.163Z,82.90
2023-03-27T14:47:15.616Z,82.20
2023-03-27T14:49:49.300Z,83.10
2023-03-27T14:52:41.534Z,78.30
2023-03-27T14:55:34.788Z,78.10
2023-03-27T14:58:26.366Z,81.40
2023-03-27T15:01:02.185Z,82.70
2023-03-27T15:03:45.301Z,83.70
2023-03-27T15:06:17.346Z,84.20
2023-03-27T15:08:55.739Z,85.20
2023-03-27T15:11:55.761Z,85.70
2023-03-27T15:14:29.393Z,81.30
2023-03-27T15:17:02.126Z,80.50
2023-03-27T15:20:14.738Z,82.20
2023-03-27T15:22:51.264Z,79.20
2023-03-27T15:25:47.365Z,79.30
2023-03-27T15:28:33.893Z,75.20
2023-03-27T15:31:03.731Z,73.90
2023-03-27T15:33:42.933Z,72.10
2023-03-27T15:36:27.005Z,72.00
2023-03-27T15:39:00.802Z,67.50
2023-03-27T15:41:28.428Z,67.60
2023-03-27T15:44:05.306Z,66.60
2023-03-27T15:46:43.931Z,66.60
2023-03-27T15:49:39.823Z,64.60
2023-03-27T15:52:31.479Z,64.70
2023-03-27T15:55:00.621Z,63.40
2023-03-27T15:57:31.963Z,63.80
2023-03-27T16:00:11.183Z,64.00
2023-03-27T16:02:43.609Z,64.30
2023-03-27T16:05:16.976Z,65.70
2023-03-27T16:07:47.747Z,65.80
2023-03-27T16:10:30.901Z,66.60
2023-03-27T16:13:02.990Z,66.10
2023-03-27T16:15:31.347Z,66.90
2023-03-27T16:18:04.399Z,66.40
2023-03-27T16:20:35.358Z,66.80
2023-03-27T16:23:04.299Z,67.60
2023-03-27T16:25:32.810Z,64.20
2023-03-27T16:28:00.677Z,64.00
2023-03-27T16:30:32.386Z,64.70
2023-03-27T16:33:01.904Z,64.40
2023-03-27T16:35:31.983Z,64.10
2023-03-27T16:38:00.923Z,64.50
2023-03-27T16:40:28.472Z,63.90
2023-03-27T16:42:56.340Z,63.60
2023-03-27T16:45:23.904Z,64.00
2023-03-27T16:47:53.278Z,62.90
2023-03-27T16:50:24.556Z,63.50
2023-03-27T16:52:52.725Z,63.80
2023-03-27T16:55:20.618Z,63.70
2023-03-27T16:57:49.683Z,63.10
2023-03-27T17:00:20.062Z,63.60
2023-03-27T17:02:48.107Z,63.40
2023-03-27T17:05:16.793Z,63.30
2023-03-27T17:07:48.332Z,63.80
2023-03-27T17:10:17.019Z,64.30
2023-03-27T17:12:47.987Z,63.70
2023-03-27T17:15:16.857Z,62.30
2023-03-27T17:17:45.820Z,62.70
2023-03-27T17:20:15.064Z,62.00
2023-03-27T17:22:43.241Z,62.00
2023-03-27T17:25:12.076Z,61.60
2023-03-27T17:27:40.745Z,62.10
2023-03-27T17:30:10.019Z,62.60
2023-03-27T17:32:39.770Z,63.20
2023-03-27T17:35:09.198Z,63.40
2023-03-27T17:37:37.372Z,63.80
2023-03-27T17:40:12.808Z,63.10
2023-03-27T17:42:41.188Z,63.60
2023-03-27T17:45:10.090Z,63.10
2023-03-27T17:47:38.282Z,62.30
2023-03-27T17:50:08.344Z,62.70
2023-03-27T17:52:36.766Z,62.70
2023-03-27T17:55:05.322Z,62.80
2023-03-27T17:57:33.149Z,63.20
2023-03-27T18:00:06.516Z,63.30
2023-03-27T18:02:40.831Z,63.40
2023-03-27T18:05:09.394Z,63.60
2023-03-27T18:07:38.476Z,64.70
2023-03-27T18:10:10.613Z,65.10
2023-03-27T18:12:38.788Z,66.00
2023-03-27T18:15:08.081Z,66.60
2023-03-27T18:17:37.457Z,67.50
2023-03-27T18:20:10.845Z,67.90
2023-03-27T18:22:41.583Z,68.30
2023-03-27T18:25:11.208Z,68.90
2023-03-27T18:27:42.176Z,69.30
2023-03-27T18:30:14.969Z,69.80
2023-03-27T18:32:46.881Z,70.40
2023-03-27T18:35:18.193Z,71.20
2023-03-27T18:37:47.658Z,71.50
2023-03-27T18:40:19.770Z,72.10
2023-03-27T18:42:48.316Z,72.80
2023-03-27T18:45:17.643Z,73.40
2023-03-27T18:50:15.350Z,74.40
2023-03-27T18:52:43.787Z,75.20
2023-03-27T18:55:13.221Z,76.00
2023-03-27T18:57:41.379Z,76.80
2023-03-27T19:00:09.958Z,77.20
2023-03-27T19:02:38.066Z,77.80
2023-03-27T19:05:06.366Z,78.50
2023-03-27T19:07:34.192Z,79.30
2023-03-27T19:10:02.900Z,80.10
2023-03-27T19:12:37.233Z,81.10
2023-03-27T19:15:27.388Z,81.80
2023-03-27T19:18:17.310Z,83.40
2023-03-27T19:21:08.346Z,84.80
2023-03-27T19:24:03.999Z,86.50
2023-03-27T19:26:41.311Z,88.80
2023-03-27T19:29:10.380Z,91.00
2023-03-27T19:31:39.033Z,91.40
2023-03-27T19:34:08.463Z,93.10
2023-03-27T19:36:38.011Z,95.70
2023-03-27T19:39:07.350Z,97.30
2023-03-27T19:41:36.209Z,98.90
2023-03-27T19:46:34.217Z,99.90
2023-03-27T19:49:02.869Z,99.90
2023-03-27T19:51:51.321Z,99.90
2023-03-27T19:54:21.388Z,99.90
2023-03-27T19:56:53.292Z,99.90
2023-03-27T19:59:30.494Z,99.90
2023-03-27T20:02:00.014Z,99.90
2023-03-27T20:04:28.121Z,99.90
2023-03-27T20:07:00.350Z,99.90
2023-03-27T20:09:28.956Z,99.90
2023-03-27T20:11:58.146Z,99.90
2023-03-27T20:19:27.865Z,99.90
2023-03-27T20:22:01.468Z,99.90
2023-03-27T20:24:29.576Z,99.90
2023-03-27T20:27:02.222Z,99.90
2023-03-27T20:29:29.922Z,99.90
2023-03-27T20:31:57.618Z,99.90
2023-03-27T20:34:25.765Z,99.90
2023-03-27T20:36:54.891Z,99.90
2023-03-27T20:39:47.151Z,99.90
2023-03-27T20:42:17.195Z,99.90
2023-03-27T20:44:55.031Z,99.90
2023-03-27T20:47:25.189Z,99.90
2023-03-27T20:49:53.411Z,99.90
2023-03-27T20:52:22.722Z,99.90
2023-03-27T20:54:51.061Z,99.90
2023-03-27T20:57:21.936Z,99.90
2023-03-27T20:59:49.872Z,99.90
2023-03-27T21:02:19.327Z,99.90
2023-03-27T21:04:47.749Z,99.90
2023-03-27T21:07:16.371Z,99.90
2023-03-27T21:09:46.802Z,99.90
2023-03-27T21:12:17.058Z,99.90
2023-03-27T21:14:44.905Z,99.90
2023-03-27T21:17:13.289Z,99.90
2023-03-27T21:19:41.164Z,99.90
2023-03-27T21:22:12.488Z,99.90
2023-03-27T21:24:41.001Z,99.90
2023-03-27T21:27:08.707Z,99.90
2023-03-27T21:29:39.147Z,99.90
2023-03-27T21:32:07.135Z,99.90
2023-03-27T21:34:35.020Z,99.90
2023-03-27T21:37:03.058Z,99.90
2023-03-27T21:39:30.832Z,99.90
2023-03-27T21:41:59.557Z,99.90
2023-03-27T21:44:27.180Z,99.90
2023-03-27T21:46:54.972Z,99.90
2023-03-27T21:49:23.892Z,99.90
2023-03-27T21:51:51.840Z,99.90
2023-03-27T21:54:19.744Z,99.90
2023-03-27T21:56:47.337Z,99.90
2023-03-27T21:59:15.720Z,99.90
2023-03-27T22:01:47.213Z,99.90
2023-03-27T22:04:15.222Z,99.90
2023-03-27T22:06:44.890Z,99.90
2023-03-27T22:09:12.734Z,99.90
2023-03-27T22:11:40.657Z,99.90
2023-03-27T22:14:08.487Z,99.90
2023-03-27T22:16:37.239Z,99.90
2023-03-27T22:19:07.168Z,99.90
2023-03-27T22:21:34.851Z,99.90
2023-03-27T22:24:04.059Z,99.90
2023-03-27T22:26:36.507Z,99.90
2023-03-27T22:29:07.780Z,99.90
2023-03-27T22:31:36.493Z,99.90
2023-03-27T22:34:05.586Z,99.90
2023-03-27T22:36:35.306Z,99.90
2023-03-27T22:39:03.286Z,99.90
2023-03-27T22:41:31.236Z,99.90
2023-03-27T22:44:01.264Z,99.90
2023-03-27T22:46:29.542Z,99.90
2023-03-27T22:48:58.829Z,99.90
2023-03-27T22:51:29.786Z,99.90
2023-03-27T22:53:57.887Z,99.90
2023-03-27T22:56:26.146Z,99.90
2023-03-27T22:58:53.670Z,99.90
2023-03-27T23:01:21.597Z,99.90
2023-03-27T23:03:49.209Z,99.90
2023-03-27T23:06:23.470Z,99.90
2023-03-27T23:08:51.854Z,99.90
2023-03-27T23:11:20.428Z,99.90
2023-03-27T23:13:49.680Z,99.90
2023-03-27T23:16:18.802Z,99.90
2023-03-27T23:18:46.693Z,99.90
2023-03-27T23:21:20.602Z,99.90
2023-03-27T23:23:48.821Z,99.90
2023-03-27T23:26:18.374Z,99.90
2023-03-27T23:28:46.360Z,99.90
2023-03-27T23:31:17.903Z,99.90
2023-03-27T23:33:48.395Z,99.90
2023-03-27T23:36:24.858Z,99.90
2023-03-27T23:38:56.296Z,99.90
2023-03-27T23:41:24.069Z,99.90
2023-03-27T23:43:51.717Z,99.90
2023-03-27T23:46:19.660Z,99.90
2023-03-27T23:48:47.405Z,99.90
2023-03-27T23:51:16.747Z,99.90
2023-03-27T23:53:44.662Z,99.90
2023-03-27T23:56:12.651Z,99.90
2023-03-27T23:58:40.304Z,99.90
